createdAt,value
2023-01-31T00:04:00.271Z,4.53
2023-01-31T00:08:02.072Z,4.51
2023-01-31T00:12:03.779Z,4.50
2023-01-31T00:16:06.602Z,4.50
2023-01-31T00:20:09.232Z,4.51
2023-01-31T00:24:14.735Z,4.49
2023-01-31T00:28:16.522Z,4.49
2023-01-31T00:32:18.265Z,4.49
2023-01-31T00:36:22.103Z,4.46
2023-01-31T00:40:23.617Z,4.43
2023-01-31T00:44:25.236Z,4.43
2023-01-31T00:48:27.215Z,4.42
2023-01-31T00:52:28.738Z,4.39
2023-01-31T00:56:32.255Z,4.39
2023-01-31T01:00:34.889Z,4.39
2023-01-31T01:04:37.363Z,4.38
2023-01-31T01:08:40.403Z,4.39
2023-01-31T01:12:43.221Z,4.42
2023-01-31T01:16:49.805Z,4.39
2023-01-31T01:20:51.363Z,4.38
2023-01-31T01:24:52.901Z,4.38
2023-01-31T01:28:56.379Z,4.36
2023-01-31T01:32:58.028Z,4.38
2023-01-31T01:36:59.894Z,4.34
2023-01-31T01:41:02.034Z,4.28
2023-01-31T01:45:16.448Z,4.25
2023-01-31T01:49:31.264Z,4.25
2023-01-31T01:53:37.318Z,4.25
2023-01-31T01:57:44.046Z,4.25
2023-01-31T02:01:47.928Z,4.24
2023-01-31T02:05:56.358Z,4.24
2023-01-31T02:11:02.873Z,4.24
2023-01-31T02:15:05.611Z,4.18
2023-01-31T02:19:19.911Z,4.14
2023-01-31T02:23:47.556Z,4.13
2023-01-31T02:28:12.014Z,4.11
2023-01-31T02:32:42.486Z,4.13
2023-01-31T02:36:53.550Z,4.17
2023-01-31T02:41:05.801Z,4.24
2023-01-31T02:45:16.946Z,4.26
2023-01-31T02:49:35.933Z,4.26
2023-01-31T02:53:57.601Z,4.25
2023-01-31T02:58:02.049Z,4.25
2023-01-31T03:02:04.688Z,4.25
2023-01-31T03:06:23.023Z,4.21
2023-01-31T03:10:30.797Z,4.18
2023-01-31T03:14:48.695Z,4.11
2023-01-31T03:19:14.096Z,4.04
2023-01-31T03:23:22.743Z,3.98
2023-01-31T03:27:24.858Z,3.88
2023-01-31T03:31:55.697Z,3.82
2023-01-31T03:36:06.052Z,3.77
2023-01-31T03:40:24.175Z,3.72
2023-01-31T03:44:30.781Z,3.63
2023-01-31T03:48:40.437Z,3.56
2023-01-31T03:53:12.091Z,3.50
2023-01-31T03:57:21.127Z,3.45
2023-01-31T04:01:25.476Z,3.41
2023-01-31T04:05:31.467Z,3.33
2023-01-31T04:09:33.786Z,3.30
2023-01-31T04:13:35.562Z,3.25
2023-01-31T04:17:37.143Z,3.16
2023-01-31T04:21:38.796Z,3.13
2023-01-31T04:25:40.426Z,3.08
2023-01-31T04:29:42.186Z,2.99
2023-01-31T04:33:43.812Z,2.94
2023-01-31T04:37:45.366Z,2.94
2023-01-31T04:41:46.906Z,2.90
2023-01-31T04:45:48.527Z,2.86
2023-01-31T04:49:50.058Z,2.81
2023-01-31T04:53:51.636Z,2.76
2023-01-31T04:57:53.497Z,2.73
2023-01-31T05:01:55.109Z,2.69
2023-01-31T05:05:56.655Z,2.66
2023-01-31T05:09:58.204Z,2.65
2023-01-31T05:13:59.797Z,2.62
2023-01-31T05:18:04.719Z,2.62
2023-01-31T05:22:06.491Z,2.63
2023-01-31T05:26:08.070Z,2.63
2023-01-31T05:30:10.423Z,2.62
2023-01-31T05:34:15.202Z,2.59
2023-01-31T05:38:16.842Z,2.61
2023-01-31T05:42:18.954Z,2.62
2023-01-31T05:46:21.207Z,2.63
2023-01-31T05:50:23.282Z,2.69
2023-01-31T05:54:24.924Z,2.73
2023-01-31T05:58:26.480Z,2.74
2023-01-31T06:02:28.138Z,2.79
2023-01-31T06:06:29.813Z,2.84
2023-01-31T06:10:31.349Z,2.89
2023-01-31T06:14:33.337Z,2.92
2023-01-31T06:18:35.373Z,2.95
2023-01-31T06:22:37.049Z,2.98
2023-01-31T06:26:38.726Z,2.98
2023-01-31T06:30:40.361Z,3.02
2023-01-31T06:34:41.991Z,3.02
2023-01-31T06:38:43.524Z,3.05
2023-01-31T06:42:45.071Z,3.05
2023-01-31T06:46:46.700Z,3.04
2023-01-31T06:50:48.292Z,3.02
2023-01-31T06:54:49.938Z,3.02
2023-01-31T06:58:51.551Z,2.98
2023-01-31T07:02:54.052Z,2.92
2023-01-31T07:06:56.284Z,2.87
2023-01-31T07:10:58.388Z,2.81
2023-01-31T07:15:00.075Z,2.77
2023-01-31T07:19:01.895Z,2.74
2023-01-31T07:23:03.605Z,2.76
2023-01-31T07:27:05.279Z,2.73
2023-01-31T07:31:10.931Z,2.73
2023-01-31T07:35:12.619Z,2.68
2023-01-31T07:39:14.528Z,2.71
2023-01-31T07:43:16.122Z,2.68
2023-01-31T07:47:17.685Z,2.69
2023-01-31T07:51:19.241Z,2.68
2023-01-31T07:55:21.142Z,2.73
2023-01-31T07:59:23.087Z,2.73
2023-01-31T08:03:33.664Z,2.76
2023-01-31T08:07:35.442Z,2.80
2023-01-31T08:11:37.023Z,2.87
2023-01-31T08:15:38.638Z,2.95
2023-01-31T08:19:40.294Z,3.01
2023-01-31T08:23:42.613Z,3.17
2023-01-31T08:27:44.266Z,3.39
2023-01-31T08:31:46.249Z,3.59
2023-01-31T08:35:47.920Z,3.86
2023-01-31T08:39:49.467Z,4.07
2023-01-31T08:43:57.567Z,4.17
2023-01-31T08:48:00.582Z,4.20
2023-01-31T08:52:02.278Z,4.24
2023-01-31T08:56:07.846Z,4.26
2023-01-31T09:00:10.241Z,4.31
2023-01-31T09:04:11.821Z,4.32
2023-01-31T09:08:13.436Z,4.34
2023-01-31T09:12:15.018Z,4.42
2023-01-31T09:16:16.907Z,4.46
2023-01-31T09:20:19.276Z,4.44
2023-01-31T09:24:21.013Z,4.35
2023-01-31T09:28:23.740Z,4.36
2023-01-31T09:32:25.413Z,4.65
2023-01-31T09:36:27.800Z,4.86
2023-01-31T09:40:33.191Z,5.01
2023-01-31T09:44:42.108Z,5.04
2023-01-31T09:48:48.740Z,5.11
2023-01-31T09:52:50.511Z,5.23
2023-01-31T09:57:05.860Z,5.26
2023-01-31T10:01:28.601Z,5.32
2023-01-31T10:05:42.063Z,5.33
2023-01-31T10:09:50.582Z,5.44
2023-01-31T10:13:58.306Z,5.51
2023-01-31T10:18:06.071Z,5.60
2023-01-31T10:22:12.383Z,5.74
2023-01-31T10:26:18.455Z,5.70
2023-01-31T10:30:29.001Z,5.67
2023-01-31T10:34:38.689Z,5.74
2023-01-31T10:38:54.788Z,5.77
2023-01-31T10:43:29.258Z,5.81
2023-01-31T10:47:51.854Z,5.77
2023-01-31T10:52:30.544Z,5.75
2023-01-31T10:56:34.136Z,5.80
2023-01-31T11:00:36.096Z,5.77
2023-01-31T11:04:42.638Z,5.85
2023-01-31T11:08:50.520Z,5.81
2023-01-31T11:12:55.552Z,5.75
2023-01-31T11:17:04.551Z,5.80
2023-01-31T11:21:06.349Z,5.83
2023-01-31T11:25:21.114Z,5.83
2023-01-31T11:29:35.971Z,5.83
2023-01-31T11:33:38.896Z,5.80
2023-01-31T11:38:03.999Z,5.77
2023-01-31T11:42:06.956Z,5.77
2023-01-31T11:46:08.759Z,5.77
2023-01-31T11:50:24.045Z,5.74
2023-01-31T11:54:31.088Z,5.67
2023-01-31T11:58:37.743Z,5.67
2023-01-31T12:02:41.564Z,5.66
2023-01-31T12:06:56.479Z,5.66
2023-01-31T12:10:59.084Z,5.70
2023-01-31T12:15:15.489Z,5.78
2023-01-31T12:19:40.805Z,5.80
2023-01-31T12:24:22.800Z,5.75
2023-01-31T12:28:49.032Z,5.70
2023-01-31T12:33:00.268Z,5.63
2023-01-31T12:37:28.211Z,5.66
2023-01-31T12:41:39.502Z,5.59
2023-01-31T12:45:59.269Z,5.56
2023-01-31T12:50:13.302Z,5.52
2023-01-31T12:54:42.951Z,5.48
2023-01-31T12:59:16.443Z,5.47
2023-01-31T13:03:42.923Z,5.47
2023-01-31T13:07:54.515Z,5.37
2023-01-31T13:12:03.661Z,5.35
2023-01-31T13:16:21.205Z,5.27
2023-01-31T13:20:40.997Z,5.23
2023-01-31T13:24:48.340Z,5.20
2023-01-31T13:28:57.157Z,5.20
2023-01-31T13:33:00.890Z,5.17
2023-01-31T13:37:06.546Z,5.19
2023-01-31T13:41:17.172Z,5.22
2023-01-31T13:45:33.675Z,5.22
2023-01-31T13:49:39.580Z,5.26
2023-01-31T13:54:07.423Z,5.33
2023-01-31T13:58:16.424Z,5.30
2023-01-31T14:02:19.383Z,5.29
2023-01-31T14:06:20.935Z,5.26
2023-01-31T14:10:27.150Z,5.27
2023-01-31T14:14:39.412Z,5.27
2023-01-31T14:18:45.707Z,5.27
2023-01-31T14:23:27.166Z,5.29
2023-01-31T14:27:33.071Z,5.30
2023-01-31T14:31:34.714Z,5.27
2023-01-31T14:36:04.104Z,5.32
2023-01-31T14:40:11.221Z,5.37
2023-01-31T14:44:32.018Z,5.40
2023-01-31T14:48:43.254Z,5.42
2023-01-31T14:53:21.651Z,5.41
2023-01-31T14:57:30.785Z,5.44
2023-01-31T15:01:37.137Z,5.49
2023-01-31T15:05:44.843Z,5.47
2023-01-31T15:09:49.324Z,5.55
2023-01-31T15:13:53.729Z,5.56
2023-01-31T15:17:57.698Z,5.56
2023-01-31T15:22:08.504Z,5.58
2023-01-31T15:26:11.035Z,5.56
2023-01-31T15:30:20.704Z,5.55
2023-01-31T15:34:34.235Z,5.55
2023-01-31T15:38:46.149Z,5.58
2023-01-31T15:42:47.780Z,5.58
2023-01-31T15:46:54.898Z,5.58
2023-01-31T15:50:59.255Z,5.60
2023-01-31T15:55:05.020Z,5.60
2023-01-31T15:59:12.736Z,5.62
2023-01-31T16:03:22.032Z,5.63
2023-01-31T16:07:28.539Z,5.66
2023-01-31T16:11:34.132Z,5.67
2023-01-31T16:15:35.907Z,5.67
2023-01-31T16:19:37.863Z,5.69
2023-01-31T16:23:39.503Z,5.70
2023-01-31T16:27:45.321Z,5.69
2023-01-31T16:31:50.832Z,5.70
2023-01-31T16:36:13.597Z,5.70
2023-01-31T16:40:17.204Z,5.73
2023-01-31T16:44:22.008Z,5.73
2023-01-31T16:48:31.709Z,5.74
2023-01-31T16:52:33.263Z,5.73
2023-01-31T16:56:34.813Z,5.70
2023-01-31T17:00:36.608Z,5.74
2023-01-31T17:04:39.089Z,5.74
2023-01-31T17:08:42.407Z,5.73
2023-01-31T17:12:44.335Z,5.77
2023-01-31T17:16:47.069Z,5.77
2023-01-31T17:20:50.714Z,5.78
2023-01-31T17:24:52.370Z,5.78
2023-01-31T17:29:01.442Z,5.78
2023-01-31T17:33:04.007Z,5.80
2023-01-31T17:37:05.610Z,5.80
2023-01-31T17:41:12.552Z,5.83
2023-01-31T17:45:17.390Z,5.81
2023-01-31T17:49:18.966Z,5.83
2023-01-31T17:53:20.567Z,5.85
2023-01-31T17:57:22.132Z,5.85
2023-01-31T18:01:23.801Z,5.88
2023-01-31T18:05:38.207Z,5.90
2023-01-31T18:09:40.677Z,5.93
2023-01-31T18:13:42.644Z,5.95
2023-01-31T18:17:44.349Z,5.95
2023-01-31T18:21:54.427Z,5.95
2023-01-31T18:25:56.208Z,5.95
2023-01-31T18:29:57.814Z,5.95
2023-01-31T18:33:59.565Z,5.95
2023-01-31T18:38:01.250Z,5.92
2023-01-31T18:42:03.064Z,5.92
2023-01-31T18:46:05.782Z,5.92
2023-01-31T18:50:08.386Z,5.90
2023-01-31T18:54:10.077Z,5.87
2023-01-31T18:58:11.797Z,5.87
2023-01-31T19:02:13.439Z,5.88
2023-01-31T19:06:18.285Z,5.87
2023-01-31T19:10:19.891Z,5.88
2023-01-31T19:14:21.423Z,5.90
2023-01-31T19:18:22.950Z,5.92
2023-01-31T19:22:28.365Z,5.92
2023-01-31T19:26:31.848Z,5.88
2023-01-31T19:30:33.487Z,5.90
2023-01-31T19:34:36.532Z,5.90
2023-01-31T19:38:38.516Z,5.87
2023-01-31T19:42:42.255Z,5.88
2023-01-31T19:46:43.940Z,5.88
2023-01-31T19:50:45.625Z,5.85
2023-01-31T19:54:47.237Z,5.81
2023-01-31T19:58:48.930Z,5.77
2023-01-31T20:02:50.530Z,5.75
2023-01-31T20:06:52.163Z,5.75
2023-01-31T20:10:54.896Z,5.74
2023-01-31T20:14:56.457Z,5.75
2023-01-31T20:19:01.589Z,5.74
2023-01-31T20:23:03.369Z,5.67
2023-01-31T20:27:04.925Z,5.66
2023-01-31T20:31:09.076Z,5.66
2023-01-31T20:35:10.714Z,5.62
2023-01-31T20:39:12.444Z,5.60
2023-01-31T20:43:14.273Z,5.62
2023-01-31T20:47:15.925Z,5.66
2023-01-31T20:51:17.517Z,5.66
2023-01-31T20:55:19.171Z,5.67
2023-01-31T20:59:20.796Z,5.66
2023-01-31T21:03:23.743Z,5.69
2023-01-31T21:07:25.471Z,5.67
2023-01-31T21:11:27.183Z,5.69
2023-01-31T21:15:29.104Z,5.74
2023-01-31T21:19:30.710Z,5.75
2023-01-31T21:23:32.481Z,5.80
2023-01-31T21:27:34.197Z,5.74
2023-01-31T21:31:35.872Z,5.67
2023-01-31T21:35:37.626Z,5.65
2023-01-31T21:39:39.169Z,5.65
2023-01-31T21:43:40.899Z,5.67
2023-01-31T21:48:00.981Z,5.67
2023-01-31T21:52:03.144Z,5.69
2023-01-31T21:56:07.258Z,5.73
2023-01-31T22:00:10.479Z,5.74
2023-01-31T22:04:12.115Z,5.73
2023-01-31T22:08:13.701Z,5.73
2023-01-31T22:12:15.771Z,5.74
2023-01-31T22:16:19.339Z,5.74
2023-01-31T22:20:21.546Z,5.75
2023-01-31T22:24:23.278Z,5.73
2023-01-31T22:28:25.048Z,5.75
2023-01-31T22:32:26.802Z,5.69
2023-01-31T22:36:28.402Z,5.65
2023-01-31T22:40:30.028Z,5.63
2023-01-31T22:44:31.605Z,5.62
2023-01-31T22:48:33.980Z,5.60
2023-01-31T22:52:35.577Z,5.62
2023-01-31T22:56:37.213Z,5.63
2023-01-31T23:00:40.190Z,5.62
2023-01-31T23:04:41.865Z,5.58
2023-01-31T23:08:43.771Z,5.55
2023-01-31T23:12:45.558Z,5.56
2023-01-31T23:17:05.704Z,5.59
2023-01-31T23:21:13.410Z,5.59
2023-01-31T23:25:15.052Z,5.62
2023-01-31T23:29:16.716Z,5.62
2023-01-31T23:33:18.238Z,5.66
2023-01-31T23:37:22.262Z,5.74
2023-01-31T23:41:23.828Z,5.78
2023-01-31T23:45:25.326Z,5.81
2023-01-31T23:49:26.901Z,5.84
2023-01-31T23:53:28.474Z,5.87
2023-01-31T23:57:30.011Z,5.87
